createdAt,value
2019-06-08T00:03:16.687Z,15.21
2019-06-08T00:08:19.220Z,15.24
2019-06-08T00:13:21.294Z,15.24
2019-06-08T00:18:23.618Z,15.25
2019-06-08T00:23:25.172Z,15.24
2019-06-08T00:28:26.672Z,15.22
2019-06-08T00:33:28.427Z,15.19
2019-06-08T00:38:29.922Z,15.19
2019-06-08T00:43:31.717Z,15.17
2019-06-08T00:48:33.473Z,15.14
2019-06-08T00:53:34.928Z,15.13
2019-06-08T00:58:36.250Z,15.11
2019-06-08T01:03:37.832Z,15.07
2019-06-08T01:08:39.872Z,15.05
2019-06-08T01:13:41.395Z,15.08
2019-06-08T01:18:43.510Z,15.06
2019-06-08T01:23:45.018Z,15.06
2019-06-08T01:28:46.407Z,15.04
2019-06-08T01:33:48.164Z,15.04
2019-06-08T01:38:49.634Z,15.02
2019-06-08T01:43:51.279Z,14.98
2019-06-08T01:48:52.855Z,14.97
2019-06-08T01:53:54.534Z,14.92
2019-06-08T01:58:56.071Z,14.92
2019-06-08T02:03:57.492Z,14.88
2019-06-08T02:08:59.046Z,14.86
2019-06-08T02:14:00.631Z,14.80
2019-06-08T02:19:02.314Z,14.79
2019-06-08T02:24:03.966Z,14.76
2019-06-08T02:29:05.559Z,14.74
2019-06-08T02:34:07.415Z,14.71
2019-06-08T02:39:08.916Z,14.69
2019-06-08T02:44:10.970Z,14.66
2019-06-08T02:49:12.600Z,14.64
2019-06-08T02:54:14.683Z,14.61
2019-06-08T02:59:16.201Z,14.60
2019-06-08T03:04:17.709Z,14.61
2019-06-08T03:09:19.135Z,14.60
2019-06-08T03:14:20.624Z,14.60
2019-06-08T03:19:23.154Z,14.58
2019-06-08T03:24:24.810Z,14.56
2019-06-08T03:29:26.863Z,14.55
2019-06-08T03:34:28.597Z,14.53
2019-06-08T03:39:30.149Z,14.49
2019-06-08T03:44:31.650Z,14.57
2019-06-08T03:49:42.955Z,14.47
2019-06-08T03:54:38.911Z,14.46
2019-06-08T03:59:40.971Z,14.45
2019-06-08T04:04:43.915Z,14.40
2019-06-08T04:09:46.216Z,14.39
2019-06-08T04:14:50.091Z,14.34
2019-06-08T04:20:09.583Z,14.36
2019-06-08T04:24:55.776Z,14.35
2019-06-08T04:29:57.680Z,14.21
2019-06-08T04:34:59.413Z,14.01
2019-06-08T04:40:01.296Z,13.89
2019-06-08T04:45:03.722Z,13.92
2019-06-08T04:50:21.674Z,13.95
2019-06-08T04:55:09.114Z,13.97
2019-06-08T05:00:12.951Z,14.00
2019-06-08T05:05:14.904Z,14.02
2019-06-08T05:10:16.852Z,14.06
2019-06-08T05:15:18.710Z,14.05
2019-06-08T05:20:20.252Z,14.06
2019-06-08T05:25:22.088Z,14.06
2019-06-08T05:30:23.917Z,14.03
2019-06-08T05:35:26.107Z,14.01
2019-06-08T05:40:27.607Z,13.97
2019-06-08T05:45:29.474Z,13.92
2019-06-08T05:50:30.944Z,13.99
2019-06-08T05:55:32.487Z,14.05
2019-06-08T06:00:34.044Z,13.90
2019-06-08T06:05:35.543Z,13.81
2019-06-08T06:10:37.067Z,13.82
2019-06-08T06:15:38.572Z,13.77
2019-06-08T06:20:41.013Z,13.78
2019-06-08T06:25:43.386Z,13.66
2019-06-08T06:30:46.666Z,13.64
2019-06-08T06:35:49.938Z,13.62
2019-06-08T06:40:52.225Z,13.38
2019-06-08T06:45:53.847Z,13.21
2019-06-08T06:50:55.625Z,13.12
2019-06-08T06:55:57.132Z,12.99
2019-06-08T07:00:58.864Z,12.78
2019-06-08T07:06:01.097Z,12.71
2019-06-08T07:11:02.928Z,12.72
2019-06-08T07:16:18.102Z,12.83
2019-06-08T07:21:08.155Z,12.99
2019-06-08T07:26:09.631Z,12.94
2019-06-08T07:31:11.217Z,12.90
2019-06-08T07:36:13.046Z,13.11
2019-06-08T07:41:14.558Z,13.40
2019-06-08T07:46:16.408Z,13.44
2019-06-08T07:51:17.880Z,13.29
2019-06-08T07:56:19.401Z,13.37
2019-06-08T08:01:35.216Z,13.49
2019-06-08T08:06:24.378Z,13.52
2019-06-08T08:11:25.935Z,13.60
2019-06-08T08:16:27.481Z,13.67
2019-06-08T08:21:29.609Z,13.75
2019-06-08T08:26:34.578Z,13.90
2019-06-08T08:31:37.285Z,13.95
2019-06-08T08:36:40.264Z,14.01
2019-06-08T08:41:42.219Z,14.17
2019-06-08T08:46:43.779Z,14.16
2019-06-08T08:51:47.565Z,14.25
2019-06-08T08:56:52.407Z,14.24
2019-06-08T09:01:52.913Z,14.26
2019-06-08T09:06:55.522Z,14.34
2019-06-08T09:12:02.292Z,14.40
2019-06-08T09:17:03.537Z,14.61
2019-06-08T09:22:05.607Z,14.64
2019-06-08T09:27:08.278Z,14.89
2019-06-08T09:32:10.036Z,14.99
2019-06-08T09:37:11.990Z,15.14
2019-06-08T10:33:48.282Z,14.89
2019-06-08T10:38:50.440Z,14.81
2019-06-08T10:43:51.952Z,15.11
2019-06-08T10:48:53.514Z,16.28
2019-06-08T10:53:55.089Z,16.25
2019-06-08T10:58:58.007Z,15.96
2019-06-08T11:04:01.931Z,15.78
2019-06-08T11:09:10.196Z,15.81
2019-06-08T11:14:12.524Z,15.64
2019-06-08T11:19:13.926Z,15.45
2019-06-08T11:24:23.740Z,15.72
2019-06-08T11:29:19.195Z,16.96
2019-06-08T11:34:21.858Z,17.90
2019-06-08T11:39:23.816Z,17.32
2019-06-08T11:44:27.589Z,16.98
2019-06-08T11:49:29.493Z,17.64
2019-06-08T11:54:37.043Z,17.73
2019-06-08T11:59:34.612Z,18.03
2019-06-08T12:04:38.273Z,18.57
2019-06-08T12:09:40.147Z,18.58
2019-06-08T12:14:41.779Z,19.07
2019-06-08T12:19:43.020Z,19.14
2019-06-08T12:24:44.702Z,18.97
2019-06-08T12:29:50.218Z,19.36
2019-06-08T12:34:49.377Z,19.14
2019-06-08T12:39:50.601Z,19.84
2019-06-08T12:44:51.857Z,19.66
2019-06-08T12:49:53.429Z,19.79
2019-06-08T12:55:03.411Z,19.57
2019-06-08T13:00:00.138Z,19.45
2019-06-08T13:05:02.250Z,19.83
2019-06-08T13:10:04.299Z,19.91
2019-06-08T13:15:08.043Z,20.00
2019-06-08T13:20:14.812Z,20.00
2019-06-08T13:25:31.958Z,20.04
2019-06-08T13:30:25.899Z,20.23
2019-06-08T13:35:23.815Z,20.13
2019-06-08T13:40:25.706Z,19.72
2019-06-08T13:45:28.033Z,19.70
2019-06-08T13:50:30.331Z,19.45
2019-06-08T13:55:48.118Z,19.35
2019-06-08T14:00:38.591Z,19.51
2019-06-08T14:05:39.500Z,19.56
2019-06-08T14:10:41.312Z,19.81
2019-06-08T14:15:43.403Z,19.86
2019-06-08T14:20:45.240Z,20.02
2019-06-08T14:25:53.865Z,20.27
2019-06-08T14:30:50.596Z,19.86
2019-06-08T14:35:53.810Z,20.12
2019-06-08T14:40:59.088Z,20.36
2019-06-08T14:46:01.046Z,20.14
2019-06-08T14:51:02.596Z,19.95
2019-06-08T14:56:08.256Z,20.19
2019-06-08T15:01:08.033Z,20.11
2019-06-08T15:06:09.392Z,20.08
2019-06-08T15:11:10.798Z,20.33
2019-06-08T15:16:12.066Z,20.22
2019-06-08T15:21:13.606Z,19.90
2019-06-08T15:26:26.143Z,20.06
2019-06-08T15:31:18.572Z,20.44
2019-06-08T15:36:21.940Z,20.26
2019-06-08T15:41:24.566Z,20.16
2019-06-08T15:46:26.497Z,20.32
2019-06-08T15:51:29.881Z,20.03
2019-06-08T15:56:44.586Z,20.10
2019-06-08T16:01:35.269Z,20.15
2019-06-08T16:06:39.463Z,20.12
2019-06-08T16:11:40.949Z,20.34
2019-06-08T16:16:42.466Z,20.03
2019-06-08T16:21:44.388Z,19.84
2019-06-08T16:26:53.215Z,19.59
2019-06-08T16:31:49.390Z,19.70
2019-06-08T16:36:51.087Z,19.32
2019-06-08T16:41:53.008Z,19.49
2019-06-08T16:46:54.644Z,19.61
2019-06-08T16:51:56.329Z,19.24
2019-06-08T16:57:09.382Z,19.25
2019-06-08T17:02:01.861Z,19.29
2019-06-08T17:07:03.390Z,19.24
2019-06-08T17:12:04.905Z,19.36
2019-06-08T17:17:06.869Z,19.49
2019-06-08T17:22:08.477Z,20.91
2019-06-08T17:27:25.886Z,22.27
2019-06-08T17:32:13.499Z,22.49
2019-06-08T17:37:14.837Z,21.00
2019-06-08T17:42:16.485Z,20.69
2019-06-08T17:47:18.064Z,20.91
2019-06-08T17:52:19.550Z,20.09
2019-06-08T17:57:21.335Z,19.36
2019-06-08T18:02:28.268Z,18.92
2019-06-08T18:07:27.814Z,18.41
2019-06-08T18:12:29.356Z,18.17
2019-06-08T18:17:30.878Z,17.98
2019-06-08T18:22:32.214Z,18.03
2019-06-08T18:27:34.659Z,17.94
2019-06-08T18:32:39.149Z,17.87
2019-06-08T18:37:41.333Z,17.55
2019-06-08T18:42:44.625Z,17.43
2019-06-08T18:47:48.487Z,17.40
2019-06-08T18:52:50.434Z,17.25
2019-06-08T18:57:52.107Z,17.24
2019-06-08T19:02:54.680Z,17.12
2019-06-08T19:07:57.295Z,17.08
2019-06-08T19:12:58.971Z,16.96
2019-06-08T19:18:00.745Z,16.84
2019-06-08T19:23:02.693Z,16.73
2019-06-08T19:28:05.020Z,16.62
2019-06-08T19:33:07.336Z,16.43
2019-06-08T19:38:09.390Z,16.31
2019-06-08T19:43:18.165Z,16.14
2019-06-08T19:48:19.519Z,16.00
2019-06-08T19:53:21.467Z,15.88
2019-06-08T19:58:23.627Z,15.74
2019-06-08T20:03:27.404Z,15.59
2019-06-08T20:08:29.433Z,15.47
2019-06-08T20:13:31.093Z,15.35
2019-06-08T20:18:32.645Z,15.50
2019-06-08T20:23:34.239Z,15.24
2019-06-08T20:28:37.259Z,15.13
2019-06-08T20:33:39.005Z,15.04
2019-06-08T20:38:44.052Z,14.94
2019-06-08T20:43:47.770Z,14.81
2019-06-08T20:48:50.081Z,14.74
2019-06-08T20:53:52.486Z,14.63
2019-06-08T20:58:57.463Z,14.53
2019-06-08T21:03:59.041Z,14.44
2019-06-08T21:09:00.573Z,14.35
2019-06-08T21:14:02.495Z,14.28
2019-06-08T21:19:03.908Z,14.23
2019-06-08T21:24:07.839Z,14.17
2019-06-08T21:29:09.493Z,14.08
2019-06-08T21:34:11.279Z,14.03
2019-06-08T21:39:12.814Z,13.98
2019-06-08T21:44:14.351Z,13.90
2019-06-08T21:49:18.255Z,13.88
2019-06-08T21:54:20.141Z,13.81
2019-06-08T21:59:21.624Z,13.78
2019-06-08T22:04:23.572Z,13.68
2019-06-08T22:09:25.528Z,13.64
2019-06-08T22:14:27.509Z,13.57
2019-06-08T22:19:29.076Z,13.50
2019-06-08T22:24:30.999Z,13.45
2019-06-08T22:29:32.938Z,13.40
2019-06-08T22:34:34.447Z,13.38
2019-06-08T22:39:37.387Z,13.33
2019-06-08T22:44:39.113Z,13.29
2019-06-08T22:49:40.611Z,13.20
2019-06-08T22:54:42.539Z,13.10
2019-06-08T22:59:44.113Z,13.07
2019-06-08T23:04:47.482Z,13.00
2019-06-08T23:09:48.867Z,12.96
2019-06-08T23:14:50.643Z,12.92
2019-06-08T23:19:52.153Z,12.86
2019-06-08T23:24:53.904Z,12.79
2019-06-08T23:29:56.625Z,12.72
2019-06-08T23:35:00.722Z,12.66
2019-06-08T23:40:05.388Z,12.61
2019-06-08T23:45:10.358Z,12.56
2019-06-08T23:50:11.680Z,12.51
2019-06-08T23:55:13.618Z,12.46
